createdAt,value
2022-12-09T00:01:30.768Z,52.27
2022-12-09T00:04:02.904Z,48.70
2022-12-09T00:06:38.837Z,53.67
2022-12-09T00:09:17.603Z,53.15
2022-12-09T00:11:53.355Z,48.57
2022-12-09T00:14:25.719Z,51.50
2022-12-09T00:16:55.040Z,48.00
2022-12-09T00:19:35.423Z,51.13
2022-12-09T00:22:07.357Z,46.33
2022-12-09T00:24:39.851Z,45.23
2022-12-09T00:27:14.925Z,48.00
2022-12-09T00:29:46.505Z,45.77
2022-12-09T00:32:24.609Z,46.13
2022-12-09T00:34:55.022Z,48.50
2022-12-09T00:37:24.757Z,45.37
2022-12-09T00:39:56.752Z,42.67
2022-12-09T00:42:27.235Z,46.13
2022-12-09T00:44:56.591Z,50.65
2022-12-09T00:47:25.981Z,45.40
2022-12-09T00:50:00.361Z,47.50
2022-12-09T00:52:33.602Z,46.63
2022-12-09T00:55:03.046Z,48.10
2022-12-09T00:57:34.794Z,51.57
2022-12-09T01:00:07.927Z,54.07
2022-12-09T01:02:38.043Z,58.07
2022-12-09T01:05:10.536Z,55.97
2022-12-09T01:07:42.839Z,56.63
2022-12-09T01:10:14.072Z,53.87
2022-12-09T01:12:43.148Z,55.80
2022-12-09T01:15:21.117Z,58.23
2022-12-09T01:17:53.723Z,49.00
2022-12-09T01:20:33.705Z,57.60
2022-12-09T01:23:03.231Z,53.77
2022-12-09T01:25:34.826Z,55.10
2022-12-09T01:28:04.526Z,53.63
2022-12-09T01:30:39.662Z,50.57
2022-12-09T01:33:13.316Z,49.50
2022-12-09T01:35:44.891Z,54.77
2022-12-09T01:38:14.820Z,48.73
2022-12-09T01:40:50.956Z,52.23
2022-12-09T01:43:21.475Z,50.43
2022-12-09T01:45:56.870Z,49.73
2022-12-09T01:48:32.234Z,53.17
2022-12-09T01:51:16.374Z,52.63
2022-12-09T01:53:52.319Z,49.17
2022-12-09T01:56:29.902Z,47.75
2022-12-09T01:59:05.217Z,50.60
2022-12-09T02:01:36.079Z,49.87
2022-12-09T02:04:06.068Z,54.43
2022-12-09T02:06:37.360Z,56.03
2022-12-09T02:09:11.045Z,50.13
2022-12-09T02:11:57.360Z,50.87
2022-12-09T02:14:39.853Z,51.17
2022-12-09T02:17:31.385Z,57.03
2022-12-09T02:20:13.881Z,53.20
2022-12-09T02:22:48.174Z,46.05
2022-12-09T02:25:30.403Z,47.27
2022-12-09T02:28:24.789Z,51.73
2022-12-09T02:31:08.680Z,49.97
2022-12-09T02:33:55.361Z,52.10
2022-12-09T02:36:30.439Z,54.63
2022-12-09T02:39:01.502Z,49.53
2022-12-09T02:41:35.422Z,56.60
2022-12-09T02:44:11.935Z,59.58
2022-12-09T02:46:47.337Z,51.43
2022-12-09T02:49:22.316Z,46.70
2022-12-09T02:51:52.279Z,51.00
2022-12-09T02:54:25.132Z,56.77
2022-12-09T02:56:57.953Z,57.27
2022-12-09T02:59:28.878Z,48.60
2022-12-09T03:02:08.965Z,56.13
2022-12-09T03:04:45.240Z,49.80
2022-12-09T03:07:24.761Z,50.37
2022-12-09T03:10:05.796Z,52.83
2022-12-09T03:12:38.576Z,49.23
2022-12-09T03:15:12.500Z,61.17
2022-12-09T03:17:46.994Z,60.23
2022-12-09T03:20:22.655Z,53.43
2022-12-09T03:22:55.398Z,51.83
2022-12-09T03:25:29.857Z,47.17
2022-12-09T03:28:04.473Z,52.37
2022-12-09T03:30:41.219Z,49.67
2022-12-09T03:33:15.644Z,48.53
2022-12-09T03:35:50.209Z,51.70
2022-12-09T03:41:00.062Z,52.53
2022-12-09T03:43:47.719Z,55.27
2022-12-09T03:46:16.978Z,57.07
2022-12-09T03:48:46.541Z,53.80
2022-12-09T03:51:25.146Z,48.83
2022-12-09T03:54:03.358Z,58.07
2022-12-09T03:56:39.184Z,50.93
2022-12-09T03:59:13.200Z,52.30
2022-12-09T04:01:49.411Z,56.05
2022-12-09T04:04:19.659Z,50.83
2022-12-09T04:06:50.680Z,51.90
2022-12-09T04:09:23.255Z,48.93
2022-12-09T04:11:54.002Z,45.37
2022-12-09T04:14:23.211Z,47.43
2022-12-09T04:16:52.357Z,55.50
2022-12-09T04:19:24.444Z,48.53
2022-12-09T04:21:53.777Z,44.95
2022-12-09T04:24:29.892Z,49.03
2022-12-09T04:26:58.879Z,48.50
2022-12-09T04:29:32.005Z,46.27
2022-12-09T04:32:01.265Z,46.90
2022-12-09T04:34:34.127Z,42.17
2022-12-09T04:37:05.165Z,44.00
2022-12-09T04:39:34.445Z,45.30
2022-12-09T04:42:06.277Z,45.83
2022-12-09T04:44:35.747Z,42.80
2022-12-09T04:47:17.035Z,47.40
2022-12-09T04:49:55.748Z,48.90
2022-12-09T04:52:26.509Z,50.07
2022-12-09T04:54:55.247Z,47.20
2022-12-09T04:57:27.261Z,45.50
2022-12-09T04:59:56.299Z,50.47
2022-12-09T05:02:25.949Z,54.83
2022-12-09T05:04:55.286Z,51.43
2022-12-09T05:07:24.767Z,52.90
2022-12-09T05:09:54.513Z,51.17
2022-12-09T05:12:23.785Z,54.50
2022-12-09T05:14:52.875Z,54.73
2022-12-09T05:17:24.909Z,48.73
2022-12-09T05:19:54.315Z,52.77
2022-12-09T05:22:23.345Z,50.40
2022-12-09T05:24:54.826Z,52.67
2022-12-09T05:27:24.002Z,52.75
2022-12-09T05:29:54.855Z,52.53
2022-12-09T05:32:23.961Z,49.00
2022-12-09T05:34:53.360Z,49.97
2022-12-09T05:37:24.633Z,48.53
2022-12-09T05:39:58.196Z,55.43
2022-12-09T05:42:27.566Z,53.07
2022-12-09T05:44:57.018Z,46.97
2022-12-09T05:47:26.221Z,49.50
2022-12-09T05:50:02.979Z,51.13
2022-12-09T05:52:37.137Z,51.37
2022-12-09T05:55:08.157Z,97.20
2022-12-09T05:57:38.014Z,84.03
2022-12-09T06:00:14.994Z,66.00
2022-12-09T06:02:47.815Z,62.80
2022-12-09T06:05:18.288Z,63.20
2022-12-09T06:07:53.373Z,67.13
2022-12-09T06:10:23.196Z,67.30
2022-12-09T06:12:57.202Z,73.07
2022-12-09T06:15:32.949Z,63.30
2022-12-09T06:18:05.763Z,60.77
2022-12-09T06:20:38.700Z,56.40
2022-12-09T06:23:09.144Z,49.77
2022-12-09T06:25:43.500Z,52.20
2022-12-09T06:28:21.581Z,51.43
2022-12-09T06:30:50.663Z,52.93
2022-12-09T06:33:52.432Z,50.70
2022-12-09T06:36:12.637Z,53.50
2022-12-09T06:38:51.498Z,51.93
2022-12-09T06:41:28.858Z,52.90
2022-12-09T06:44:00.054Z,50.10
2022-12-09T06:46:33.759Z,55.05
2022-12-09T06:49:04.756Z,58.30
2022-12-09T06:51:33.983Z,53.50
2022-12-09T06:54:03.144Z,52.47
2022-12-09T06:56:35.287Z,52.90
2022-12-09T06:59:07.773Z,54.47
2022-12-09T07:01:46.073Z,53.33
2022-12-09T07:04:16.894Z,54.67
2022-12-09T07:06:46.978Z,55.43
2022-12-09T07:09:23.150Z,59.53
2022-12-09T07:11:52.832Z,55.43
2022-12-09T07:14:22.150Z,56.23
2022-12-09T07:16:52.105Z,54.60
2022-12-09T07:19:24.659Z,64.13
2022-12-09T07:21:53.937Z,61.03
2022-12-09T07:24:23.188Z,64.17
2022-12-09T07:26:52.657Z,68.57
2022-12-09T07:29:23.047Z,71.80
2022-12-09T07:31:52.795Z,74.63
2022-12-09T07:34:22.013Z,77.37
2022-12-09T07:36:52.058Z,73.53
2022-12-09T07:39:21.816Z,78.00
2022-12-09T07:41:56.207Z,83.93
2022-12-09T07:44:30.335Z,82.13
2022-12-09T07:47:00.304Z,81.43
2022-12-09T07:49:30.710Z,91.43
2022-12-09T07:52:00.065Z,91.17
2022-12-09T07:54:38.995Z,84.67
2022-12-09T07:57:08.067Z,81.33
2022-12-09T07:59:37.953Z,80.00
2022-12-09T08:02:08.943Z,73.97
2022-12-09T08:04:41.387Z,80.60
2022-12-09T08:07:13.758Z,76.53
2022-12-09T08:09:43.084Z,74.53
2022-12-09T08:12:17.224Z,88.20
2022-12-09T08:14:46.366Z,82.22
2022-12-09T08:17:21.451Z,78.43
2022-12-09T08:19:52.230Z,75.50
2022-12-09T08:22:23.109Z,77.90
2022-12-09T08:24:52.316Z,74.33
2022-12-09T08:27:23.399Z,74.47
2022-12-09T08:29:53.078Z,66.70
2022-12-09T08:32:22.624Z,78.00
2022-12-09T08:34:52.160Z,73.77
2022-12-09T08:37:26.589Z,70.37
2022-12-09T08:39:55.940Z,61.02
2022-12-09T08:42:30.560Z,64.57
2022-12-09T08:45:02.441Z,74.13
2022-12-09T08:47:32.114Z,64.90
2022-12-09T08:50:05.412Z,72.83
2022-12-09T08:52:40.340Z,79.35
2022-12-09T08:55:10.769Z,80.27
2022-12-09T08:57:41.004Z,69.53
2022-12-09T09:00:12.486Z,66.50
2022-12-09T09:02:43.231Z,75.27
2022-12-09T09:05:18.989Z,78.57
2022-12-09T09:07:53.319Z,72.83
2022-12-09T09:10:22.534Z,69.10
2022-12-09T09:12:51.487Z,76.63
2022-12-09T09:15:20.763Z,80.50
2022-12-09T09:17:52.414Z,74.37
2022-12-09T09:20:25.729Z,71.33
2022-12-09T09:23:02.813Z,70.53
2022-12-09T09:25:40.231Z,67.47
2022-12-09T09:28:12.976Z,70.20
2022-12-09T09:30:43.211Z,75.13
2022-12-09T09:33:12.445Z,70.47
2022-12-09T09:35:42.395Z,71.53
2022-12-09T09:38:21.899Z,64.77
2022-12-09T09:40:51.300Z,67.10
2022-12-09T09:43:24.463Z,75.73
2022-12-09T09:45:56.878Z,74.80
2022-12-09T09:48:31.871Z,74.40
2022-12-09T09:51:05.919Z,74.07
2022-12-09T09:53:43.838Z,73.95
2022-12-09T09:56:28.502Z,82.20
2022-12-09T09:59:14.313Z,79.77
2022-12-09T10:01:59.272Z,71.93
2022-12-09T10:04:39.375Z,69.60
2022-12-09T10:07:20.097Z,70.10
2022-12-09T10:10:03.074Z,66.53
2022-12-09T10:12:41.746Z,71.00
2022-12-09T10:15:16.948Z,73.70
2022-12-09T10:20:22.450Z,63.43
2022-12-09T10:22:55.888Z,61.80
2022-12-09T10:25:27.483Z,60.48
2022-12-09T10:28:16.125Z,61.00
2022-12-09T10:30:45.926Z,64.27
2022-12-09T10:33:26.836Z,63.17
2022-12-09T10:35:56.932Z,62.87
2022-12-09T10:38:41.934Z,64.13
2022-12-09T10:44:23.158Z,56.00
2022-12-09T10:46:59.708Z,63.03
2022-12-09T10:49:33.314Z,63.00
2022-12-09T10:52:04.434Z,54.80
2022-12-09T10:54:38.650Z,63.13
2022-12-09T10:57:23.468Z,59.37
2022-12-09T11:00:07.085Z,57.60
2022-12-09T11:05:25.470Z,62.10
2022-12-09T11:07:58.341Z,63.13
2022-12-09T11:10:30.717Z,59.80
2022-12-09T11:13:04.611Z,60.67
2022-12-09T11:15:59.292Z,61.27
2022-12-09T11:18:33.911Z,55.13
2022-12-09T11:21:06.945Z,62.50
2022-12-09T11:23:41.935Z,64.83
2022-12-09T11:26:24.763Z,60.00
2022-12-09T11:29:03.835Z,61.50
2022-12-09T11:31:53.905Z,62.80
2022-12-09T11:34:29.984Z,64.30
2022-12-09T11:37:02.206Z,67.50
2022-12-09T11:39:37.767Z,62.73
2022-12-09T11:42:24.386Z,66.00
2022-12-09T11:44:56.853Z,62.47
2022-12-09T11:47:50.351Z,61.23
2022-12-09T11:50:23.778Z,60.03
2022-12-09T11:53:17.320Z,64.83
2022-12-09T11:55:49.538Z,60.33
2022-12-09T11:58:26.010Z,67.53
2022-12-09T12:01:02.915Z,61.50
2022-12-09T12:03:40.139Z,61.73
2022-12-09T12:06:17.440Z,62.10
2022-12-09T12:08:51.495Z,73.43
2022-12-09T12:11:26.885Z,67.43
2022-12-09T12:14:06.807Z,69.45
2022-12-09T12:16:48.872Z,60.20
2022-12-09T12:19:28.345Z,63.23
2022-12-09T12:22:25.154Z,59.67
2022-12-09T12:25:25.992Z,72.00
2022-12-09T12:28:16.961Z,59.07
2022-12-09T12:30:55.636Z,64.33
2022-12-09T12:34:16.181Z,59.97
2022-12-09T12:36:47.492Z,62.60
2022-12-09T12:39:31.022Z,59.63
2022-12-09T12:42:13.800Z,62.70
2022-12-09T12:45:14.025Z,60.37
2022-12-09T12:47:48.952Z,62.33
2022-12-09T12:50:43.611Z,58.47
2022-12-09T12:53:29.670Z,61.85
2022-12-09T12:56:04.739Z,57.15
2022-12-09T12:58:51.998Z,51.67
2022-12-09T13:04:22.274Z,66.00
2022-12-09T13:06:57.657Z,67.70
2022-12-09T13:09:35.020Z,66.37
2022-12-09T13:12:11.588Z,70.83
2022-12-09T13:14:52.246Z,64.20
2022-12-09T13:17:31.589Z,64.40
2022-12-09T13:20:03.839Z,66.20
2022-12-09T13:22:47.613Z,71.23
2022-12-09T13:25:29.694Z,62.93
2022-12-09T13:28:16.234Z,59.70
2022-12-09T13:30:54.409Z,62.00
2022-12-09T13:33:44.634Z,62.43
2022-12-09T13:36:21.484Z,69.00
2022-12-09T13:38:52.016Z,68.47
2022-12-09T13:42:02.246Z,63.67
2022-12-09T13:44:34.586Z,61.80
2022-12-09T13:47:24.424Z,61.53
2022-12-09T13:49:57.618Z,57.83
2022-12-09T13:52:46.500Z,63.50
2022-12-09T13:55:33.716Z,57.20
2022-12-09T13:58:45.918Z,59.83
2022-12-09T14:01:25.652Z,63.70
2022-12-09T14:04:02.347Z,61.97
2022-12-09T14:06:35.617Z,67.77
2022-12-09T14:09:24.605Z,62.73
2022-12-09T14:11:54.983Z,62.37
2022-12-09T14:14:57.795Z,62.40
2022-12-09T14:18:04.618Z,71.13
2022-12-09T14:20:39.820Z,129.67
2022-12-09T14:23:20.507Z,131.47
2022-12-09T14:26:33.617Z,113.57
2022-12-09T14:29:03.491Z,97.97
2022-12-09T14:31:57.961Z,101.33
2022-12-09T14:34:34.321Z,116.53
2022-12-09T14:37:30.674Z,107.53
2022-12-09T14:40:18.769Z,115.27
2022-12-09T14:42:58.096Z,110.30
2022-12-09T14:45:36.526Z,100.40
2022-12-09T14:48:11.804Z,102.83
2022-12-09T14:50:47.634Z,98.60
2022-12-09T14:53:24.816Z,91.13
2022-12-09T14:55:54.806Z,99.03
2022-12-09T14:58:29.987Z,91.00
2022-12-09T15:01:06.114Z,83.07
2022-12-09T15:03:54.911Z,83.53
2022-12-09T15:06:27.158Z,77.93
2022-12-09T15:08:59.828Z,72.63
2022-12-09T15:11:37.318Z,74.93
2022-12-09T15:14:27.736Z,72.63
2022-12-09T15:16:59.060Z,76.60
2022-12-09T15:19:59.110Z,78.43
2022-12-09T15:22:24.117Z,80.93
2022-12-09T15:24:56.163Z,83.60
2022-12-09T15:27:28.719Z,82.87
2022-12-09T15:29:59.356Z,104.23
2022-12-09T15:32:30.396Z,112.53
2022-12-09T15:35:25.887Z,94.00
2022-12-09T15:40:31.658Z,105.40
2022-12-09T15:43:12.619Z,96.70
2022-12-09T15:45:44.723Z,101.67
2022-12-09T15:48:35.858Z,104.60
2022-12-09T15:51:19.170Z,102.57
2022-12-09T15:54:00.213Z,106.63
2022-12-09T15:56:35.843Z,107.77
2022-12-09T15:59:11.992Z,117.17
2022-12-09T16:01:49.945Z,137.63
2022-12-09T16:04:22.756Z,132.97
2022-12-09T16:06:52.254Z,134.73
2022-12-09T16:09:25.040Z,112.20
2022-12-09T16:11:55.020Z,116.63
2022-12-09T16:14:26.710Z,103.93
2022-12-09T16:17:01.218Z,104.87
2022-12-09T16:19:38.378Z,120.50
2022-12-09T16:22:28.327Z,103.50
2022-12-09T16:25:15.283Z,106.10
2022-12-09T16:27:50.922Z,110.53
2022-12-09T16:30:26.089Z,104.27
2022-12-09T16:33:02.460Z,111.27
2022-12-09T16:35:42.779Z,104.60
2022-12-09T16:38:21.418Z,95.17
2022-12-09T16:41:21.667Z,104.63
2022-12-09T16:44:00.147Z,97.37
2022-12-09T16:47:02.769Z,102.80
2022-12-09T16:49:34.797Z,106.47
2022-12-09T16:52:13.201Z,111.70
2022-12-09T16:54:46.658Z,102.93
2022-12-09T16:57:21.401Z,113.67
2022-12-09T17:00:01.728Z,104.63
2022-12-09T17:02:41.576Z,105.63
2022-12-09T17:05:15.316Z,112.20
2022-12-09T17:07:48.770Z,115.95
2022-12-09T17:10:20.300Z,116.47
2022-12-09T17:12:56.529Z,116.37
2022-12-09T17:15:26.626Z,116.03
2022-12-09T17:17:56.941Z,109.67
2022-12-09T17:20:26.262Z,106.63
2022-12-09T17:22:56.228Z,104.60
2022-12-09T17:25:29.171Z,112.33
2022-12-09T17:28:03.647Z,104.13
2022-12-09T17:30:38.500Z,113.40
2022-12-09T17:33:09.942Z,117.30
2022-12-09T17:35:40.088Z,105.63
2022-12-09T17:38:10.013Z,108.10
2022-12-09T17:40:39.055Z,116.87
2022-12-09T17:43:15.822Z,106.23
2022-12-09T17:45:48.417Z,108.23
2022-12-09T17:48:21.993Z,112.13
2022-12-09T17:50:52.097Z,110.03
2022-12-09T17:53:21.116Z,108.27
2022-12-09T17:55:50.361Z,112.07
2022-12-09T17:58:24.051Z,116.57
2022-12-09T18:00:56.406Z,141.60
2022-12-09T18:03:53.734Z,127.53
2022-12-09T18:06:17.972Z,113.63
2022-12-09T18:08:50.434Z,112.20
2022-12-09T18:11:24.881Z,119.87
2022-12-09T18:13:57.690Z,102.50
2022-12-09T18:16:26.912Z,122.47
2022-12-09T18:19:03.333Z,128.07
2022-12-09T18:21:36.989Z,119.97
2022-12-09T18:24:07.318Z,116.15
2022-12-09T18:26:42.226Z,114.70
2022-12-09T18:29:14.787Z,101.80
2022-12-09T18:31:56.564Z,103.13
2022-12-09T18:34:28.496Z,107.77
2022-12-09T18:36:58.261Z,105.37
2022-12-09T18:39:36.834Z,118.67
2022-12-09T18:42:06.850Z,118.07
2022-12-09T18:44:42.084Z,102.67
2022-12-09T18:47:11.291Z,100.80
2022-12-09T18:49:40.601Z,110.87
2022-12-09T18:52:09.499Z,103.60
2022-12-09T18:54:39.772Z,106.27
2022-12-09T18:57:08.750Z,103.00
2022-12-09T18:59:38.211Z,104.50
2022-12-09T19:02:09.434Z,109.50
2022-12-09T19:04:39.366Z,118.97
2022-12-09T19:07:13.762Z,119.20
2022-12-09T19:09:42.783Z,118.50
2022-12-09T19:12:45.337Z,111.57
2022-12-09T19:15:03.243Z,111.90
2022-12-09T19:17:33.203Z,106.47
2022-12-09T19:20:02.820Z,106.27
2022-12-09T19:22:32.441Z,102.60
2022-12-09T19:25:02.141Z,96.65
2022-12-09T19:27:33.793Z,90.47
2022-12-09T19:30:02.936Z,91.93
2022-12-09T19:32:52.785Z,94.50
2022-12-09T19:35:28.546Z,84.85
2022-12-09T19:38:01.561Z,89.93
2022-12-09T19:40:39.752Z,95.83
2022-12-09T19:43:18.867Z,89.23
2022-12-09T19:45:48.035Z,96.47
2022-12-09T19:48:17.978Z,101.65
2022-12-09T19:50:47.072Z,98.77
2022-12-09T19:53:20.255Z,100.93
2022-12-09T19:55:49.244Z,91.07
2022-12-09T19:58:23.071Z,111.75
2022-12-09T20:00:54.743Z,102.70
2022-12-09T20:03:24.761Z,104.10
2022-12-09T20:05:55.752Z,102.47
2022-12-09T20:08:25.330Z,100.27
2022-12-09T20:10:54.583Z,98.17
2022-12-09T20:13:28.612Z,100.73
2022-12-09T20:16:05.301Z,105.03
2022-12-09T20:18:47.931Z,98.33
2022-12-09T20:21:25.375Z,101.17
2022-12-09T20:23:59.707Z,100.97
2022-12-09T20:26:37.377Z,106.57
2022-12-09T20:29:12.936Z,99.70
2022-12-09T20:31:45.386Z,104.37
2022-12-09T20:34:15.912Z,110.73
2022-12-09T20:36:45.858Z,103.63
2022-12-09T20:39:18.805Z,116.03
2022-12-09T20:41:58.871Z,113.63
2022-12-09T20:44:27.644Z,115.70
2022-12-09T20:46:59.514Z,104.43
2022-12-09T20:49:29.263Z,106.63
2022-12-09T20:52:00.697Z,92.23
2022-12-09T20:54:29.485Z,102.43
2022-12-09T20:56:58.485Z,101.17
2022-12-09T20:59:29.946Z,97.93
2022-12-09T21:02:02.179Z,93.57
2022-12-09T21:04:34.330Z,102.13
2022-12-09T21:07:13.143Z,89.90
2022-12-09T21:09:41.820Z,102.50
2022-12-09T21:12:10.890Z,94.03
2022-12-09T21:14:39.932Z,93.80
2022-12-09T21:17:10.437Z,91.33
2022-12-09T21:19:39.273Z,100.67
2022-12-09T21:22:08.185Z,97.27
2022-12-09T21:24:37.493Z,102.20
2022-12-09T21:27:06.511Z,95.80
2022-12-09T21:29:37.320Z,100.17
2022-12-09T21:32:06.182Z,100.37
2022-12-09T21:34:40.312Z,103.40
2022-12-09T21:39:40.112Z,90.17
2022-12-09T21:42:09.082Z,100.37
2022-12-09T21:44:42.666Z,98.20
2022-12-09T21:47:12.257Z,99.83
2022-12-09T21:49:41.026Z,103.97
2022-12-09T21:52:10.446Z,107.37
2022-12-09T21:54:40.298Z,114.90
2022-12-09T21:57:09.163Z,102.63
2022-12-09T21:59:38.064Z,88.83
2022-12-09T22:02:07.873Z,100.27
2022-12-09T22:04:38.299Z,111.60
2022-12-09T22:07:07.069Z,105.00
2022-12-09T22:09:39.683Z,102.93
2022-12-09T22:12:09.442Z,111.00
2022-12-09T22:14:40.965Z,108.47
2022-12-09T22:17:09.658Z,99.30
2022-12-09T22:19:41.487Z,102.73
2022-12-09T22:22:12.933Z,101.20
2022-12-09T22:24:41.988Z,103.57
2022-12-09T22:27:13.714Z,106.50
2022-12-09T22:29:54.046Z,99.07
2022-12-09T22:32:23.740Z,108.37
2022-12-09T22:34:54.991Z,108.03
2022-12-09T22:37:43.902Z,104.67
2022-12-09T22:40:14.502Z,103.27
2022-12-09T22:42:43.439Z,105.07
2022-12-09T22:45:12.487Z,106.10
2022-12-09T22:47:43.503Z,110.60
2022-12-09T22:50:13.354Z,97.77
2022-12-09T22:52:42.208Z,100.80
2022-12-09T22:55:11.004Z,116.87
2022-12-09T22:57:39.921Z,106.33
2022-12-09T23:00:11.292Z,108.90
2022-12-09T23:02:40.983Z,106.70
2022-12-09T23:05:13.012Z,105.70
2022-12-09T23:07:42.043Z,101.00
2022-12-09T23:10:11.195Z,111.83
2022-12-09T23:12:40.058Z,106.77
2022-12-09T23:15:09.983Z,99.03
2022-12-09T23:17:42.499Z,101.30
2022-12-09T23:20:12.458Z,103.40
2022-12-09T23:22:44.296Z,100.33
2022-12-09T23:25:13.155Z,93.97
2022-12-09T23:27:42.207Z,108.40
2022-12-09T23:30:13.910Z,102.37
2022-12-09T23:32:43.095Z,106.93
2022-12-09T23:35:15.172Z,99.80
2022-12-09T23:37:44.088Z,101.73
2022-12-09T23:40:15.407Z,98.50
2022-12-09T23:42:44.252Z,102.30
2022-12-09T23:45:13.133Z,101.10
2022-12-09T23:47:41.956Z,100.57
2022-12-09T23:50:11.182Z,109.30
2022-12-09T23:52:40.140Z,100.10
2022-12-09T23:55:10.294Z,97.40
2022-12-09T23:57:39.079Z,94.63
